createdAt,value
2022-07-26T00:00:51.208Z,100.00
2022-07-26T00:05:56.355Z,100.00
2022-07-26T00:11:00.038Z,100.00
2022-07-26T00:16:11.229Z,100.00
2022-07-26T00:21:16.176Z,100.00
2022-07-26T00:26:19.913Z,100.00
2022-07-26T00:31:23.997Z,100.00
2022-07-26T00:36:29.840Z,100.00
2022-07-26T00:41:33.521Z,100.00
2022-07-26T00:46:37.267Z,100.00
2022-07-26T00:51:42.673Z,100.00
2022-07-26T00:56:54.865Z,100.00
2022-07-26T01:01:59.142Z,100.00
2022-07-26T01:07:15.058Z,100.00
2022-07-26T01:12:19.717Z,100.00
2022-07-26T01:17:23.608Z,100.00
2022-07-26T01:22:28.624Z,100.00
2022-07-26T01:27:34.474Z,100.00
2022-07-26T01:32:39.377Z,100.00
2022-07-26T01:37:44.561Z,99.91
2022-07-26T01:42:48.239Z,99.36
2022-07-26T01:47:52.063Z,96.90
2022-07-26T01:52:57.137Z,99.79
2022-07-26T01:58:00.805Z,99.12
2022-07-26T02:03:04.780Z,100.00
2022-07-26T02:08:09.808Z,100.00
2022-07-26T02:13:14.531Z,97.09
2022-07-26T02:18:18.603Z,98.10
2022-07-26T02:23:24.230Z,95.80
2022-07-26T02:28:28.162Z,100.00
2022-07-26T02:33:31.735Z,100.00
2022-07-26T02:38:36.761Z,100.00
2022-07-26T02:43:40.404Z,100.00
2022-07-26T02:48:44.226Z,100.00
2022-07-26T02:53:49.372Z,99.52
2022-07-26T02:58:53.294Z,100.00
2022-07-26T03:03:59.671Z,100.00
2022-07-26T03:09:08.009Z,100.00
2022-07-26T03:14:15.093Z,98.35
2022-07-26T03:19:25.017Z,99.88
2022-07-26T03:24:34.249Z,99.66
2022-07-26T03:29:41.619Z,97.47
2022-07-26T03:34:48.591Z,100.00
2022-07-26T03:39:56.924Z,97.49
2022-07-26T03:45:05.659Z,97.78
2022-07-26T03:50:14.183Z,97.00
2022-07-26T03:55:39.616Z,100.00
2022-07-26T04:00:46.778Z,96.57
2022-07-26T04:05:54.064Z,91.85
2022-07-26T04:11:04.558Z,91.26
2022-07-26T04:16:11.826Z,90.00
2022-07-26T04:21:18.669Z,91.71
2022-07-26T04:26:26.986Z,89.58
2022-07-26T04:31:36.259Z,85.79
2022-07-26T04:36:43.604Z,84.75
2022-07-26T04:41:52.220Z,79.24
2022-07-26T04:46:59.473Z,80.84
2022-07-26T04:52:06.415Z,77.83
2022-07-26T04:57:14.838Z,76.94
2022-07-26T05:02:21.980Z,77.21
2022-07-26T05:07:29.083Z,74.06
2022-07-26T05:12:37.396Z,75.19
2022-07-26T05:17:45.729Z,69.92
2022-07-26T05:22:52.638Z,76.14
2022-07-26T05:28:01.237Z,73.56
2022-07-26T05:33:08.324Z,70.21
2022-07-26T05:38:15.397Z,71.52
2022-07-26T05:43:22.878Z,65.24
2022-07-26T05:48:29.901Z,60.82
2022-07-26T05:53:37.075Z,60.87
2022-07-26T05:58:45.902Z,62.56
2022-07-26T06:03:52.830Z,61.15
2022-07-26T06:08:59.680Z,60.28
2022-07-26T06:14:08.373Z,60.02
2022-07-26T06:19:15.906Z,56.91
2022-07-26T06:24:24.388Z,56.51
2022-07-26T06:29:32.777Z,57.17
2022-07-26T06:34:40.189Z,54.10
2022-07-26T06:39:47.088Z,54.75
2022-07-26T06:44:55.605Z,53.28
2022-07-26T06:50:02.622Z,52.40
2022-07-26T06:55:12.540Z,51.79
2022-07-26T07:00:21.862Z,47.45
2022-07-26T07:05:31.212Z,50.00
2022-07-26T07:10:38.531Z,50.31
2022-07-26T07:15:45.728Z,50.91
2022-07-26T07:20:51.868Z,48.94
2022-07-26T07:25:56.767Z,48.25
2022-07-26T07:31:03.873Z,48.22
2022-07-26T07:36:09.502Z,49.11
2022-07-26T07:41:15.966Z,50.27
2022-07-26T07:46:24.742Z,48.98
2022-07-26T07:51:33.033Z,46.57
2022-07-26T07:56:43.805Z,44.95
2022-07-26T08:01:52.620Z,45.75
2022-07-26T08:06:59.772Z,45.04
2022-07-26T08:12:06.646Z,44.25
2022-07-26T08:17:15.637Z,42.71
2022-07-26T08:22:22.498Z,42.33
2022-07-26T08:27:29.958Z,44.67
2022-07-26T08:32:37.983Z,45.99
2022-07-26T08:37:44.887Z,46.55
2022-07-26T08:42:52.803Z,46.23
2022-07-26T08:48:18.794Z,45.74
2022-07-26T08:53:26.618Z,46.10
2022-07-26T08:58:36.006Z,43.12
2022-07-26T09:03:44.647Z,44.23
2022-07-26T09:08:53.977Z,44.88
2022-07-26T09:14:03.231Z,44.16
2022-07-26T09:19:24.279Z,43.97
2022-07-26T09:24:35.889Z,44.59
2022-07-26T09:29:50.496Z,45.89
2022-07-26T09:35:37.037Z,44.46
2022-07-26T09:40:38.707Z,46.02
2022-07-26T09:45:44.499Z,44.37
2022-07-26T09:50:51.913Z,43.97
2022-07-26T09:55:58.117Z,43.29
2022-07-26T10:01:02.618Z,44.29
2022-07-26T10:06:08.004Z,44.13
2022-07-26T10:11:14.541Z,46.85
2022-07-26T10:16:33.806Z,48.00
2022-07-26T10:21:42.259Z,47.77
2022-07-26T10:26:49.266Z,47.52
2022-07-26T10:32:21.920Z,47.29
2022-07-26T10:37:30.882Z,49.85
2022-07-26T10:42:46.853Z,47.47
2022-07-26T10:48:17.191Z,47.64
2022-07-26T10:53:27.873Z,48.62
2022-07-26T10:58:45.054Z,47.92
2022-07-26T11:03:52.077Z,51.16
2022-07-26T11:09:01.075Z,52.25
2022-07-26T11:14:09.784Z,51.28
2022-07-26T11:19:18.661Z,51.30
2022-07-26T11:24:27.628Z,51.69
2022-07-26T11:29:38.471Z,51.98
2022-07-26T11:34:48.875Z,51.28
2022-07-26T11:39:57.279Z,53.38
2022-07-26T11:45:04.480Z,54.05
2022-07-26T11:50:18.256Z,56.88
2022-07-26T11:55:31.909Z,56.82
2022-07-26T12:00:39.094Z,58.03
2022-07-26T12:06:03.285Z,60.66
2022-07-26T12:11:12.480Z,61.82
2022-07-26T12:16:41.175Z,65.30
2022-07-26T12:21:50.266Z,65.61
2022-07-26T12:27:09.616Z,61.70
2022-07-26T12:32:18.419Z,64.02
2022-07-26T12:37:37.694Z,70.91
2022-07-26T12:43:01.169Z,73.26
2022-07-26T12:48:11.107Z,73.64
2022-07-26T12:53:15.429Z,74.39
2022-07-26T12:58:22.887Z,71.92
2022-07-26T13:03:29.756Z,73.31
2022-07-26T13:08:37.726Z,78.28
2022-07-26T13:13:45.517Z,77.81
2022-07-26T13:18:52.004Z,80.12
2022-07-26T13:23:59.720Z,81.55
2022-07-26T13:29:08.206Z,81.92
2022-07-26T13:34:15.865Z,87.10
2022-07-26T13:39:22.510Z,89.86
2022-07-26T13:44:30.909Z,94.33
2022-07-26T13:49:38.068Z,95.55
2022-07-26T13:54:45.127Z,99.64
2022-07-26T13:59:53.733Z,100.00
2022-07-26T14:05:05.294Z,100.00
2022-07-26T14:10:16.567Z,100.00
2022-07-26T14:21:16.608Z,100.00
2022-07-26T14:26:23.596Z,100.00
2022-07-26T14:31:33.139Z,100.00
2022-07-26T14:36:39.848Z,100.00
2022-07-26T14:41:47.074Z,100.00
2022-07-26T14:46:55.308Z,100.00
2022-07-26T14:52:03.227Z,100.00
2022-07-26T14:57:10.292Z,100.00
2022-07-26T15:02:19.017Z,100.00
2022-07-26T15:07:26.094Z,100.00
2022-07-26T15:12:34.319Z,100.00
2022-07-26T15:17:42.749Z,100.00
2022-07-26T15:22:49.912Z,100.00
2022-07-26T15:27:56.967Z,100.00
2022-07-26T15:33:05.389Z,100.00
2022-07-26T15:38:11.544Z,100.00
2022-07-26T15:43:23.911Z,100.00
2022-07-26T15:48:51.961Z,100.00
2022-07-26T15:53:59.432Z,100.00
2022-07-26T15:59:07.523Z,100.00
2022-07-26T16:04:15.356Z,100.00
2022-07-26T16:09:22.560Z,100.00
2022-07-26T16:14:29.914Z,100.00
2022-07-26T16:19:38.077Z,100.00
2022-07-26T16:24:45.271Z,100.00
2022-07-26T16:29:52.665Z,100.00
2022-07-26T16:35:01.181Z,100.00
2022-07-26T16:40:09.895Z,100.00
2022-07-26T16:45:18.378Z,100.00
2022-07-26T16:50:27.704Z,100.00
2022-07-26T16:55:34.744Z,100.00
2022-07-26T17:00:41.755Z,100.00
2022-07-26T17:05:49.956Z,100.00
2022-07-26T17:10:57.834Z,100.00
2022-07-26T17:16:05.048Z,100.00
2022-07-26T17:21:13.470Z,100.00
2022-07-26T17:26:21.019Z,100.00
2022-07-26T17:31:27.700Z,100.00
2022-07-26T17:36:36.387Z,100.00
2022-07-26T17:41:47.435Z,100.00
2022-07-26T17:46:57.938Z,100.00
2022-07-26T17:52:07.235Z,100.00
2022-07-26T17:57:14.365Z,100.00
2022-07-26T18:02:20.833Z,100.00
2022-07-26T18:07:29.305Z,100.00
2022-07-26T18:12:36.587Z,100.00
2022-07-26T18:17:41.402Z,100.00
2022-07-26T18:22:50.196Z,100.00
2022-07-26T18:27:54.750Z,100.00
2022-07-26T18:32:59.161Z,100.00
2022-07-26T18:38:04.494Z,100.00
2022-07-26T18:43:08.661Z,100.00
2022-07-26T18:48:12.448Z,100.00
2022-07-26T18:53:19.421Z,100.00
2022-07-26T18:58:25.455Z,100.00
2022-07-26T19:03:34.851Z,100.00
2022-07-26T19:08:40.268Z,100.00
2022-07-26T19:13:43.998Z,100.00
2022-07-26T19:18:50.795Z,100.00
2022-07-26T19:23:57.979Z,100.00
2022-07-26T19:29:01.717Z,100.00
2022-07-26T19:34:05.376Z,100.00
2022-07-26T19:39:10.805Z,100.00
2022-07-26T19:44:14.987Z,100.00
2022-07-26T19:49:18.760Z,100.00
2022-07-26T19:54:23.880Z,100.00
2022-07-26T19:59:28.646Z,100.00
2022-07-26T20:04:32.582Z,100.00
2022-07-26T20:09:37.833Z,100.00
2022-07-26T20:14:41.660Z,100.00
2022-07-26T20:19:45.312Z,100.00
2022-07-26T20:24:55.226Z,100.00
2022-07-26T20:30:01.149Z,100.00
2022-07-26T20:35:05.690Z,100.00
2022-07-26T20:40:12.191Z,100.00
2022-07-26T20:45:16.182Z,100.00
2022-07-26T20:50:20.666Z,100.00
2022-07-26T20:55:25.949Z,100.00
2022-07-26T21:00:29.666Z,100.00
2022-07-26T21:05:33.387Z,100.00
2022-07-26T21:10:38.790Z,100.00
2022-07-26T21:15:42.617Z,100.00
2022-07-26T21:20:47.728Z,100.00
2022-07-26T21:26:00.777Z,100.00
2022-07-26T21:31:08.179Z,100.00
2022-07-26T21:36:11.934Z,100.00
2022-07-26T21:41:17.173Z,100.00
2022-07-26T21:46:20.903Z,100.00
2022-07-26T21:51:24.680Z,100.00
2022-07-26T21:56:29.859Z,100.00
2022-07-26T22:01:33.674Z,100.00
2022-07-26T22:06:38.112Z,100.00
2022-07-26T22:11:43.397Z,100.00
2022-07-26T22:16:47.784Z,100.00
2022-07-26T22:21:51.624Z,100.00
2022-07-26T22:26:56.644Z,100.00
2022-07-26T22:32:00.400Z,100.00
2022-07-26T22:37:04.119Z,100.00
2022-07-26T22:42:16.547Z,100.00
2022-07-26T22:47:20.370Z,100.00
2022-07-26T22:52:24.091Z,100.00
2022-07-26T22:57:29.128Z,100.00
2022-07-26T23:02:36.585Z,100.00
2022-07-26T23:07:40.789Z,100.00
2022-07-26T23:12:46.711Z,100.00
2022-07-26T23:17:50.475Z,100.00
2022-07-26T23:22:54.196Z,100.00
2022-07-26T23:27:59.617Z,100.00
2022-07-26T23:33:03.246Z,100.00
2022-07-26T23:38:06.836Z,100.00
2022-07-26T23:43:11.962Z,100.00
2022-07-26T23:48:15.691Z,100.00
2022-07-26T23:53:19.477Z,100.00
2022-07-26T23:58:31.855Z,100.00
